createdAt,value
2017-06-22T00:00:18.530Z,69.10
2017-06-22T00:02:44.535Z,69.00
2017-06-22T00:05:10.531Z,68.50
2017-06-22T00:07:36.543Z,68.50
2017-06-22T00:10:02.519Z,68.70
2017-06-22T00:12:28.538Z,69.40
2017-06-22T00:14:54.513Z,68.90
2017-06-22T00:17:20.469Z,69.20
2017-06-22T00:19:46.462Z,69.30
2017-06-22T00:22:12.418Z,68.60
2017-06-22T00:24:38.434Z,69.00
2017-06-22T00:27:05.151Z,69.70
2017-06-22T00:29:31.185Z,69.70
2017-06-22T00:31:57.146Z,69.90
2017-06-22T00:34:23.108Z,70.00
2017-06-22T00:36:49.142Z,69.70
2017-06-22T00:39:15.118Z,69.80
2017-06-22T00:41:41.142Z,69.80
2017-06-22T00:44:07.123Z,69.70
2017-06-22T00:46:33.877Z,70.10
2017-06-22T00:48:59.855Z,70.10
2017-06-22T00:51:26.643Z,70.40
2017-06-22T00:53:52.630Z,70.40
2017-06-22T00:56:18.619Z,70.30
2017-06-22T00:58:44.625Z,70.40
2017-06-22T01:01:10.587Z,71.00
2017-06-22T01:03:36.609Z,72.10
2017-06-22T01:06:02.626Z,72.40
2017-06-22T01:08:28.671Z,72.70
2017-06-22T01:10:54.643Z,72.60
2017-06-22T01:13:20.615Z,72.30
2017-06-22T01:15:46.619Z,72.90
2017-06-22T01:18:12.581Z,72.50
2017-06-22T01:20:38.578Z,72.90
2017-06-22T01:23:04.591Z,72.60
2017-06-22T01:25:30.610Z,73.30
2017-06-22T01:27:57.322Z,73.70
2017-06-22T01:30:23.310Z,73.70
2017-06-22T01:32:49.270Z,73.40
2017-06-22T01:35:15.275Z,73.60
2017-06-22T01:37:41.231Z,73.50
2017-06-22T01:40:07.254Z,73.80
2017-06-22T01:42:33.222Z,74.30
2017-06-22T01:44:59.192Z,74.60
2017-06-22T01:47:25.282Z,75.10
2017-06-22T01:49:51.274Z,75.30
2017-06-22T01:52:17.287Z,75.60
2017-06-22T01:54:43.250Z,76.10
2017-06-22T01:57:09.271Z,76.50
2017-06-22T01:59:35.288Z,75.70
2017-06-22T02:02:01.272Z,76.20
2017-06-22T02:04:27.486Z,76.50
2017-06-22T02:06:53.500Z,76.80
2017-06-22T02:09:19.506Z,76.40
2017-06-22T02:11:45.470Z,76.00
2017-06-22T02:14:11.470Z,76.50
2017-06-22T02:16:37.470Z,77.10
2017-06-22T02:19:03.444Z,78.10
2017-06-22T02:21:29.580Z,78.30
2017-06-22T02:23:55.546Z,77.70
2017-06-22T02:26:21.591Z,78.00
2017-06-22T02:28:47.554Z,77.70
2017-06-22T02:31:13.530Z,77.90
2017-06-22T02:33:39.530Z,78.40
2017-06-22T02:36:05.530Z,78.00
2017-06-22T02:38:31.546Z,79.10
2017-06-22T02:40:57.548Z,78.80
2017-06-22T02:43:23.566Z,78.90
2017-06-22T02:45:49.565Z,79.20
2017-06-22T02:48:15.576Z,79.30
2017-06-22T02:50:41.556Z,79.40
2017-06-22T02:53:07.604Z,79.50
2017-06-22T02:55:33.576Z,79.90
2017-06-22T02:57:59.603Z,79.90
2017-06-22T03:00:25.566Z,79.90
2017-06-22T03:02:51.590Z,80.60
2017-06-22T03:05:17.663Z,81.00
2017-06-22T03:08:09.510Z,80.50
2017-06-22T03:10:36.266Z,81.70
2017-06-22T03:13:02.247Z,81.60
2017-06-22T03:15:28.961Z,80.80
2017-06-22T03:17:55.700Z,80.40
2017-06-22T03:20:22.434Z,80.90
2017-06-22T03:22:48.429Z,80.80
2017-06-22T03:25:15.163Z,81.00
2017-06-22T03:27:41.170Z,80.80
2017-06-22T03:30:07.915Z,81.10
2017-06-22T03:32:33.930Z,80.90
2017-06-22T03:34:59.890Z,81.90
2017-06-22T03:37:25.915Z,82.60
2017-06-22T03:39:52.631Z,82.70
2017-06-22T03:42:19.382Z,83.50
2017-06-22T03:44:45.343Z,82.60
2017-06-22T03:47:11.312Z,82.10
2017-06-22T03:49:37.314Z,83.10
2017-06-22T03:52:03.295Z,82.60
2017-06-22T03:54:29.347Z,82.60
2017-06-22T03:56:55.314Z,83.30
2017-06-22T03:59:22.103Z,82.00
2017-06-22T04:01:48.090Z,82.60
2017-06-22T04:04:14.087Z,82.80
2017-06-22T04:06:40.090Z,83.80
2017-06-22T04:09:06.123Z,83.20
2017-06-22T04:11:32.108Z,83.60
2017-06-22T04:13:58.080Z,83.60
2017-06-22T04:16:24.078Z,83.90
2017-06-22T04:18:50.054Z,84.00
2017-06-22T04:21:16.086Z,84.50
2017-06-22T04:23:42.062Z,84.00
2017-06-22T04:26:08.045Z,84.40
2017-06-22T04:28:34.083Z,84.30
2017-06-22T04:31:00.099Z,84.90
2017-06-22T04:33:26.106Z,85.00
2017-06-22T04:35:52.112Z,84.40
2017-06-22T04:38:18.094Z,84.40
2017-06-22T04:40:44.839Z,84.80
2017-06-22T04:43:10.821Z,84.70
2017-06-22T04:45:37.587Z,85.30
2017-06-22T04:48:03.554Z,85.30
2017-06-22T04:50:30.296Z,84.40
2017-06-22T04:52:56.302Z,84.40
2017-06-22T04:55:23.022Z,84.30
2017-06-22T04:57:49.778Z,85.30
2017-06-22T05:00:15.754Z,85.20
2017-06-22T05:02:41.798Z,83.70
2017-06-22T05:05:07.802Z,83.30
2017-06-22T05:07:34.531Z,83.40
2017-06-22T05:10:00.575Z,83.10
2017-06-22T05:12:26.582Z,83.10
2017-06-22T05:14:52.563Z,82.50
2017-06-22T05:17:19.316Z,82.00
2017-06-22T05:19:45.400Z,82.20
2017-06-22T05:22:11.391Z,81.90
2017-06-22T05:24:37.399Z,81.50
2017-06-22T05:27:03.389Z,81.20
2017-06-22T05:29:30.143Z,80.10
2017-06-22T05:31:56.161Z,80.00
2017-06-22T05:34:22.208Z,79.60
2017-06-22T05:36:48.215Z,79.70
2017-06-22T05:39:14.678Z,79.70
2017-06-22T05:41:40.683Z,80.40
2017-06-22T05:44:06.731Z,79.20
2017-06-22T05:46:32.799Z,79.10
2017-06-22T05:48:58.806Z,78.40
2017-06-22T05:51:25.562Z,78.80
2017-06-22T05:53:51.759Z,78.80
2017-06-22T05:56:17.789Z,78.60
2017-06-22T05:58:43.814Z,78.10
2017-06-22T06:01:09.788Z,78.80
2017-06-22T06:03:35.763Z,78.90
2017-06-22T06:06:01.787Z,78.40
2017-06-22T06:08:28.515Z,77.80
2017-06-22T06:10:55.227Z,77.90
2017-06-22T06:13:21.238Z,77.70
2017-06-22T06:15:47.199Z,77.50
2017-06-22T06:18:13.211Z,78.40
2017-06-22T06:20:39.217Z,77.10
2017-06-22T06:23:05.266Z,76.70
2017-06-22T06:25:31.308Z,76.80
2017-06-22T06:27:57.271Z,78.00
2017-06-22T06:30:23.286Z,76.00
2017-06-22T06:32:49.316Z,76.10
2017-06-22T06:35:16.061Z,77.30
2017-06-22T06:37:42.038Z,77.30
2017-06-22T06:40:08.139Z,76.90
2017-06-22T06:42:34.207Z,76.00
2017-06-22T06:45:00.231Z,76.00
2017-06-22T06:47:26.266Z,76.70
2017-06-22T06:49:52.226Z,76.00
2017-06-22T06:52:18.239Z,77.10
2017-06-22T06:54:44.223Z,76.00
2017-06-22T06:57:10.988Z,75.00
2017-06-22T06:59:36.966Z,75.00
2017-06-22T07:02:02.967Z,75.20
2017-06-22T07:04:29.795Z,75.70
2017-06-22T07:06:55.766Z,75.60
2017-06-22T07:09:21.771Z,76.20
2017-06-22T07:11:47.767Z,76.40
2017-06-22T07:14:13.758Z,77.30
2017-06-22T07:16:39.774Z,76.60
2017-06-22T07:19:05.750Z,77.20
2017-06-22T07:21:31.718Z,76.90
2017-06-22T07:23:57.806Z,76.90
2017-06-22T07:26:23.837Z,75.80
2017-06-22T07:28:49.865Z,77.50
2017-06-22T07:31:15.831Z,76.60
2017-06-22T07:33:43.019Z,76.70
2017-06-22T07:36:09.087Z,77.60
2017-06-22T07:38:35.066Z,76.90
2017-06-22T07:41:01.087Z,77.50
2017-06-22T07:43:27.803Z,76.60
2017-06-22T07:45:53.810Z,76.50
2017-06-22T07:48:19.775Z,76.70
2017-06-22T07:50:45.784Z,77.80
2017-06-22T07:53:11.803Z,77.50
2017-06-22T07:55:37.817Z,76.20
2017-06-22T07:58:03.811Z,75.30
2017-06-22T08:00:29.838Z,76.10
2017-06-22T08:02:56.183Z,78.80
2017-06-22T08:05:22.179Z,76.70
2017-06-22T08:07:48.183Z,76.80
2017-06-22T08:10:14.160Z,76.40
2017-06-22T08:12:40.147Z,78.00
2017-06-22T08:15:06.161Z,77.00
2017-06-22T08:17:32.270Z,75.80
2017-06-22T08:19:58.235Z,74.80
2017-06-22T08:22:24.231Z,75.10
2017-06-22T08:24:50.230Z,73.80
2017-06-22T08:27:16.198Z,74.40
2017-06-22T08:29:42.224Z,76.10
2017-06-22T08:32:08.934Z,74.20
2017-06-22T08:34:34.904Z,74.20
2017-06-22T08:37:00.960Z,73.50
2017-06-22T08:39:26.926Z,74.50
2017-06-22T08:41:52.938Z,73.30
2017-06-22T08:44:18.898Z,72.90
2017-06-22T08:46:45.600Z,71.10
2017-06-22T08:49:11.634Z,71.10
2017-06-22T08:51:37.603Z,71.00
2017-06-22T08:54:03.626Z,71.90
2017-06-22T08:56:29.586Z,71.00
2017-06-22T08:58:55.551Z,70.90
2017-06-22T09:01:21.567Z,70.70
2017-06-22T09:03:48.322Z,74.30
2017-06-22T09:06:14.341Z,73.30
2017-06-22T09:08:40.365Z,71.10
2017-06-22T09:11:06.439Z,70.40
2017-06-22T09:13:33.142Z,71.10
2017-06-22T09:15:59.203Z,71.00
2017-06-22T09:18:25.162Z,68.50
2017-06-22T09:20:51.190Z,67.30
2017-06-22T09:23:17.186Z,67.90
2017-06-22T09:25:43.161Z,67.10
2017-06-22T09:28:09.159Z,66.20
2017-06-22T09:30:35.143Z,65.80
2017-06-22T09:33:01.155Z,67.10
2017-06-22T09:35:27.162Z,67.10
2017-06-22T09:37:53.126Z,65.30
2017-06-22T09:40:19.878Z,66.30
2017-06-22T09:42:45.854Z,66.20
2017-06-22T09:45:12.613Z,64.70
2017-06-22T09:47:38.635Z,64.50
2017-06-22T09:50:04.601Z,63.50
2017-06-22T09:52:31.306Z,61.50
2017-06-22T09:54:57.310Z,61.50
2017-06-22T09:57:23.275Z,61.40
2017-06-22T09:59:49.322Z,61.20
2017-06-22T10:02:15.286Z,61.70
2017-06-22T10:04:41.299Z,61.80
2017-06-22T10:07:07.351Z,60.20
2017-06-22T10:09:33.310Z,61.30
2017-06-22T10:11:59.374Z,59.40
2017-06-22T10:14:25.384Z,59.10
2017-06-22T10:16:51.348Z,58.30
2017-06-22T10:19:17.355Z,58.50
2017-06-22T10:21:44.069Z,59.40
2017-06-22T10:24:10.059Z,59.40
2017-06-22T10:26:36.086Z,57.70
2017-06-22T10:29:02.042Z,58.30
2017-06-22T10:31:28.006Z,57.80
2017-06-22T10:33:54.023Z,57.60
2017-06-22T10:36:20.734Z,57.20
2017-06-22T10:38:46.746Z,57.10
2017-06-22T10:41:12.767Z,57.60
2017-06-22T10:43:39.502Z,56.40
2017-06-22T10:46:05.564Z,56.30
2017-06-22T10:48:31.522Z,55.90
2017-06-22T10:50:58.230Z,55.00
2017-06-22T10:53:24.226Z,54.90
2017-06-22T10:55:50.242Z,55.80
2017-06-22T10:58:16.247Z,55.20
2017-06-22T11:00:42.223Z,56.40
2017-06-22T11:03:08.258Z,55.30
2017-06-22T11:05:34.227Z,56.20
2017-06-22T11:08:00.198Z,55.10
2017-06-22T11:10:26.951Z,54.60
2017-06-22T11:12:52.915Z,54.60
2017-06-22T11:15:18.923Z,55.40
2017-06-22T11:17:44.898Z,55.60
2017-06-22T11:20:10.923Z,53.20
2017-06-22T11:22:36.897Z,52.50
2017-06-22T11:25:02.947Z,52.00
2017-06-22T11:27:28.910Z,52.50
2017-06-22T11:29:54.883Z,53.30
2017-06-22T11:32:20.917Z,52.50
2017-06-22T11:34:47.633Z,52.90
2017-06-22T11:37:13.668Z,52.20
2017-06-22T11:39:40.434Z,50.60
2017-06-22T11:42:06.462Z,50.50
2017-06-22T11:44:32.434Z,49.90
2017-06-22T11:46:58.455Z,49.60
2017-06-22T11:49:24.422Z,49.00
2017-06-22T11:51:50.398Z,48.20
2017-06-22T11:54:16.910Z,46.40
2017-06-22T11:56:42.951Z,46.40
2017-06-22T11:59:08.950Z,46.90
2017-06-22T12:01:34.967Z,45.30
2017-06-22T12:04:00.935Z,43.80
2017-06-22T12:06:26.954Z,43.40
2017-06-22T12:08:52.923Z,43.50
2017-06-22T12:11:18.894Z,43.40
2017-06-22T12:13:44.923Z,44.30
2017-06-22T12:16:11.647Z,43.70
2017-06-22T12:18:37.606Z,43.70
2017-06-22T12:21:04.375Z,42.90
2017-06-22T12:23:30.351Z,42.50
2017-06-22T12:25:57.071Z,40.40
2017-06-22T12:28:23.832Z,41.00
2017-06-22T12:30:49.798Z,40.90
2017-06-22T12:33:16.566Z,37.10
2017-06-22T12:35:42.546Z,37.10
2017-06-22T12:38:09.258Z,35.90
2017-06-22T12:40:35.260Z,35.90
2017-06-22T12:43:01.238Z,35.10
2017-06-22T12:45:27.255Z,35.60
2017-06-22T12:47:53.254Z,34.70
2017-06-22T12:50:19.246Z,35.00
2017-06-22T12:52:45.243Z,35.60
2017-06-22T12:55:11.216Z,36.30
2017-06-22T12:57:37.218Z,35.00
2017-06-22T13:00:03.226Z,34.80
2017-06-22T13:02:29.256Z,34.90
2017-06-22T13:04:55.998Z,35.30
2017-06-22T13:07:22.028Z,35.20
2017-06-22T13:09:48.034Z,34.10
2017-06-22T13:12:14.013Z,34.90
2017-06-22T13:14:40.778Z,33.90
2017-06-22T13:17:06.748Z,34.40
2017-06-22T13:19:32.770Z,34.20
2017-06-22T13:21:58.730Z,33.70
2017-06-22T13:24:25.434Z,34.30
2017-06-22T13:26:51.469Z,34.20
2017-06-22T13:29:18.182Z,38.00
2017-06-22T13:31:44.931Z,37.10
2017-06-22T13:34:10.963Z,36.40
2017-06-22T13:36:36.942Z,37.10
2017-06-22T13:39:03.654Z,35.80
2017-06-22T13:41:30.422Z,36.60
2017-06-22T13:43:56.379Z,36.60
2017-06-22T13:46:22.395Z,35.70
2017-06-22T13:48:49.102Z,35.00
2017-06-22T13:51:15.066Z,34.30
2017-06-22T13:53:41.089Z,33.90
2017-06-22T13:56:07.062Z,33.80
2017-06-22T13:58:33.803Z,34.70
2017-06-22T14:00:59.810Z,34.60
2017-06-22T14:03:25.845Z,34.60
2017-06-22T14:05:51.814Z,35.40
2017-06-22T14:08:18.515Z,36.00
2017-06-22T14:10:44.531Z,35.90
2017-06-22T14:13:10.587Z,37.70
2017-06-22T14:15:36.632Z,38.70
2017-06-22T14:18:02.650Z,39.80
2017-06-22T14:20:28.668Z,39.80
2017-06-22T14:22:54.635Z,40.20
2017-06-22T14:25:20.656Z,41.30
2017-06-22T14:27:46.627Z,42.20
2017-06-22T14:30:12.587Z,42.20
2017-06-22T14:32:38.615Z,43.10
2017-06-22T14:35:04.602Z,43.60
2017-06-22T14:37:30.557Z,44.10
2017-06-22T14:39:56.563Z,44.70
2017-06-22T14:42:22.534Z,45.30
2017-06-22T14:44:48.543Z,45.50
2017-06-22T14:47:14.516Z,46.30
2017-06-22T14:49:40.482Z,47.40
2017-06-22T14:52:07.286Z,51.30
2017-06-22T14:54:33.242Z,51.20
2017-06-22T14:57:06.192Z,55.40
2017-06-22T14:59:32.911Z,62.70
2017-06-22T15:01:59.761Z,67.70
2017-06-22T15:04:25.725Z,67.10
2017-06-22T15:06:51.711Z,71.10
2017-06-22T15:09:17.721Z,73.30
2017-06-22T15:11:43.707Z,74.40
2017-06-22T15:14:09.726Z,75.10
2017-06-22T15:16:35.694Z,75.60
2017-06-22T15:19:02.463Z,74.40
2017-06-22T15:21:28.421Z,74.30
2017-06-22T15:23:54.399Z,73.90
2017-06-22T15:26:20.422Z,73.90
2017-06-22T15:28:46.403Z,71.40
2017-06-22T15:31:12.431Z,71.70
2017-06-22T15:33:38.402Z,71.70
2017-06-22T15:36:04.419Z,70.20
2017-06-22T15:38:30.434Z,70.30
2017-06-22T15:40:56.394Z,70.70
2017-06-22T15:43:22.378Z,70.80
2017-06-22T15:45:48.402Z,70.30
2017-06-22T15:48:14.430Z,70.10
2017-06-22T15:50:41.160Z,70.30
2017-06-22T15:53:07.142Z,70.20
2017-06-22T15:55:33.255Z,71.10
2017-06-22T15:57:59.250Z,71.60
2017-06-22T16:00:25.318Z,71.60
2017-06-22T16:02:51.287Z,72.30
2017-06-22T16:05:17.251Z,72.30
2017-06-22T16:07:43.294Z,72.70
2017-06-22T16:10:09.277Z,72.80
2017-06-22T16:12:35.289Z,72.90
2017-06-22T16:15:01.319Z,72.60
2017-06-22T16:17:27.303Z,72.70
2017-06-22T16:19:53.334Z,73.10
2017-06-22T16:22:19.307Z,72.90
2017-06-22T16:24:45.298Z,72.90
2017-06-22T16:27:11.363Z,73.20
2017-06-22T16:29:37.335Z,72.20
2017-06-22T16:32:03.375Z,72.20
2017-06-22T16:34:29.414Z,72.60
2017-06-22T16:36:55.476Z,72.00
2017-06-22T16:39:21.430Z,71.30
2017-06-22T16:41:47.406Z,71.40
2017-06-22T16:44:13.527Z,71.50
2017-06-22T16:46:39.493Z,71.50
2017-06-22T16:49:05.481Z,72.00
2017-06-22T16:51:31.507Z,71.90
2017-06-22T16:53:57.474Z,72.00
2017-06-22T16:56:23.479Z,72.00
2017-06-22T16:58:49.455Z,72.10
2017-06-22T17:01:15.579Z,72.40
2017-06-22T17:03:41.590Z,72.30
2017-06-22T17:06:07.566Z,72.50
2017-06-22T17:08:33.587Z,72.60
2017-06-22T17:10:59.579Z,73.30
2017-06-22T17:13:25.613Z,73.70
2017-06-22T17:15:51.587Z,75.50
2017-06-22T17:18:17.576Z,76.80
2017-06-22T17:20:43.842Z,77.50
2017-06-22T17:23:09.810Z,78.10
2017-06-22T17:25:35.841Z,77.80
2017-06-22T17:28:02.601Z,80.00
2017-06-22T17:30:28.669Z,79.90
2017-06-22T17:32:54.674Z,86.40
2017-06-22T17:35:20.766Z,90.50
2017-06-22T17:37:46.980Z,91.50
2017-06-22T17:40:12.958Z,91.50
2017-06-22T17:42:38.935Z,94.30
2017-06-22T17:45:04.946Z,95.90
2017-06-22T17:47:31.702Z,97.50
2017-06-22T17:49:57.965Z,97.50
2017-06-22T17:52:24.001Z,96.50
2017-06-22T17:54:50.027Z,98.30
2017-06-22T17:57:15.991Z,96.60
2017-06-22T17:59:41.958Z,97.30
2017-06-22T18:02:08.012Z,98.30
2017-06-22T18:04:34.021Z,99.10
2017-06-22T18:07:00.031Z,99.80
2017-06-22T18:09:26.080Z,99.80
2017-06-22T18:11:52.046Z,99.40
2017-06-22T18:14:18.050Z,99.90
2017-06-22T18:16:44.218Z,99.90
2017-06-22T18:19:10.214Z,99.90
2017-06-22T18:21:36.219Z,99.90
2017-06-22T18:24:02.190Z,99.90
2017-06-22T18:26:28.210Z,99.90
2017-06-22T18:28:54.967Z,99.90
2017-06-22T18:31:20.967Z,99.90
2017-06-22T18:33:46.983Z,99.90
2017-06-22T18:36:12.949Z,99.90
2017-06-22T18:38:38.970Z,99.90
2017-06-22T18:41:04.930Z,99.90
2017-06-22T18:43:30.911Z,99.90
2017-06-22T18:45:56.941Z,99.90
2017-06-22T18:48:22.914Z,99.90
2017-06-22T18:50:49.127Z,99.90
2017-06-22T18:53:15.831Z,99.90
2017-06-22T18:55:41.859Z,99.90
2017-06-22T18:58:07.818Z,99.90
2017-06-22T19:00:33.880Z,99.90
2017-06-22T19:03:00.664Z,99.90
2017-06-22T19:05:26.679Z,99.90
2017-06-22T19:07:52.675Z,99.90
2017-06-22T19:10:18.639Z,99.90
2017-06-22T19:12:45.436Z,99.90
2017-06-22T19:15:11.401Z,99.90
2017-06-22T19:17:37.394Z,99.90
2017-06-22T19:20:03.403Z,99.90
2017-06-22T19:22:29.378Z,99.90
2017-06-22T19:24:55.386Z,99.90
2017-06-22T19:27:21.395Z,99.90
2017-06-22T19:29:47.371Z,99.90
2017-06-22T19:32:13.387Z,99.90
2017-06-22T19:34:39.359Z,99.90
2017-06-22T19:37:05.326Z,99.90
2017-06-22T19:39:31.346Z,99.90
2017-06-22T19:41:57.411Z,99.90
2017-06-22T19:44:23.379Z,99.90
2017-06-22T19:46:50.085Z,99.90
2017-06-22T19:49:16.087Z,99.90
2017-06-22T19:51:42.115Z,99.90
2017-06-22T19:54:08.129Z,99.90
2017-06-22T19:56:34.843Z,99.90
2017-06-22T19:59:00.877Z,99.90
2017-06-22T20:01:26.870Z,99.90
2017-06-22T20:03:52.866Z,99.90
2017-06-22T20:06:18.915Z,99.90
2017-06-22T20:08:45.078Z,99.90
2017-06-22T20:11:11.070Z,99.90
2017-06-22T20:13:37.167Z,99.90
2017-06-22T20:16:03.170Z,99.90
2017-06-22T20:18:29.204Z,99.90
2017-06-22T20:20:55.223Z,99.90
2017-06-22T20:23:21.486Z,99.90
2017-06-22T20:25:47.453Z,99.90
2017-06-22T20:28:13.459Z,99.90
2017-06-22T20:30:39.440Z,99.90
2017-06-22T20:33:05.448Z,99.90
2017-06-22T20:35:31.427Z,99.90
2017-06-22T20:37:58.183Z,99.90
2017-06-22T20:40:24.226Z,99.90
2017-06-22T20:42:50.187Z,99.90
2017-06-22T20:45:16.194Z,99.90
2017-06-22T20:47:42.210Z,99.90
2017-06-22T20:50:08.229Z,99.90
2017-06-22T20:52:34.198Z,99.90
2017-06-22T20:55:00.207Z,99.90
2017-06-22T20:57:26.183Z,99.90
2017-06-22T20:59:52.162Z,99.90
2017-06-22T21:02:18.219Z,99.90
2017-06-22T21:04:44.189Z,99.90
2017-06-22T21:07:10.894Z,99.90
2017-06-22T21:09:36.911Z,99.90
2017-06-22T21:12:03.634Z,99.90
2017-06-22T21:14:30.373Z,99.90
2017-06-22T21:16:57.077Z,99.90
2017-06-22T21:19:23.094Z,99.90
2017-06-22T21:21:49.802Z,99.90
2017-06-22T21:24:15.766Z,99.90
2017-06-22T21:26:41.758Z,99.90
2017-06-22T21:29:07.718Z,99.90
2017-06-22T21:31:33.732Z,99.90
2017-06-22T21:33:59.734Z,99.90
2017-06-22T21:36:25.739Z,99.90
2017-06-22T21:38:51.710Z,99.90
2017-06-22T21:41:17.682Z,99.90
2017-06-22T21:43:43.763Z,99.90
2017-06-22T21:46:09.763Z,99.90
2017-06-22T21:48:35.799Z,99.90
2017-06-22T21:51:01.765Z,99.90
2017-06-22T21:53:27.733Z,99.90
2017-06-22T21:55:54.474Z,99.90
2017-06-22T21:58:21.190Z,99.90
2017-06-22T22:00:47.962Z,99.90
2017-06-22T22:03:13.954Z,99.90
2017-06-22T22:05:39.946Z,99.90
2017-06-22T22:08:07.066Z,99.90
2017-06-22T22:10:33.039Z,99.90
2017-06-22T22:12:59.029Z,99.90
2017-06-22T22:15:25.057Z,99.90
2017-06-22T22:17:51.794Z,99.90
2017-06-22T22:20:17.751Z,99.90
2017-06-22T22:22:43.789Z,99.90
2017-06-22T22:25:09.751Z,99.90
2017-06-22T22:27:35.714Z,99.90
2017-06-22T22:30:02.502Z,99.90
2017-06-22T22:32:28.470Z,99.90
2017-06-22T22:34:54.464Z,99.90
2017-06-22T22:37:20.627Z,99.90
2017-06-22T22:39:46.592Z,99.90
2017-06-22T22:42:12.542Z,99.90
2017-06-22T22:44:38.574Z,99.90
2017-06-22T22:47:04.559Z,99.90
2017-06-22T22:49:30.567Z,99.90
2017-06-22T22:51:56.904Z,99.90
2017-06-22T22:54:22.933Z,99.90
2017-06-22T22:56:49.674Z,99.90
2017-06-22T22:59:15.634Z,99.90
2017-06-22T23:01:41.626Z,99.90
2017-06-22T23:04:07.582Z,99.90
2017-06-22T23:06:33.606Z,99.90
2017-06-22T23:09:00.358Z,99.90
2017-06-22T23:11:26.395Z,99.90
2017-06-22T23:13:52.371Z,99.90
2017-06-22T23:16:18.417Z,99.90
2017-06-22T23:18:44.415Z,99.90
2017-06-22T23:21:10.381Z,99.90
2017-06-22T23:23:36.395Z,99.90
2017-06-22T23:26:02.350Z,99.90
2017-06-22T23:28:28.351Z,99.90
2017-06-22T23:30:54.324Z,99.90
2017-06-22T23:33:20.286Z,99.90
2017-06-22T23:35:46.285Z,99.90
2017-06-22T23:38:12.250Z,99.90
2017-06-22T23:40:38.274Z,99.90
2017-06-22T23:43:04.230Z,99.90
2017-06-22T23:45:30.234Z,99.90
2017-06-22T23:47:56.246Z,99.90
2017-06-22T23:50:22.208Z,99.90
2017-06-22T23:52:48.201Z,99.90
2017-06-22T23:55:14.200Z,99.90
2017-06-22T23:57:40.302Z,99.90
